Terminal Aerodrome Forecast
Issued by NWS Cleveland, OH

Home | Current Version | Previous Version | Graphics & Text | Print | Product List | Glossary On
Versions: 1 2 3 4 5 6 7 8 9 10 11 12 13 14 15 16 17 18 19
356
FTUS41 KCLE 211449 AAB
TAFYNG
TAF AMD
KYNG 211449Z 2115/2212 08007KT 5SM -RA BKN008 OVC015
      TEMPO 2115/2118 2SM -DZ BR SCT005 OVC010
     FM220400 36003KT 6SM BR BKN030
     FM220700 32004KT 3SM BR BKN030=

USA.gov is the U.S. government's official web portal to all federal, state and local government web resources and services.